Saint-Hyacinthe, Canada
Current Conditions -  °F | °C
As of 1:00 PM on Saturday 25 Oct 2014 (Local Time) from CYHU Reporting Station
Broken Clouds Broken Clouds  
Wind Chill: 12°   Ceiling: 16000
Heat Index: 12°   Visibility: 9mi
Dew Point:   Wind: 14mph
Humidity: 67%   Direction: 220°SW
Pressure: 29.6"   Gusts: NA
Location:  45.62°N, 72.95°W
Report Text: CYHU 251700Z AUTO 22012KT 9SM SCT047 BKN160 BKN190 BKN220 12/06 A2960 RMK PRESFR SLP023 DENSITY ALT 100FT
Loading
Personal Weather Stations






























Interactive Weather Map
Tropical Storm Tracking
New forecast layout! Learn more

10-Day Weather Forecast

Advertisements
Track Severe Weather on mobile